Pagrindinis puslapis
METAR-TAF:

METAR-TAF

Oro uostai :

Sandane, Norvegija

platuma: 61-50N, ilguma: 006-07E, Aukštis: 6 m

Dabartinis oras

Ataskaita buvo paskelbta 36 minutes, ne 08:50 UTC
Vėjas 5 kt iš Pietų/Pietryčių, svyruoja nuo Rytų/Pietryčių ir Pietų
Temperatūra -7°C
Drėgmė 79%
Slėgis 1013 hPa
Matomumas 10 km arba daugiau
Mažai debesys ne aukštis 1000 ft

METAR: ENSD 100850Z 15005KT 110V190 9999 FEW010 M07/M10 Q1013 RMK WIND RWY26 18005KT WIND 1140FT 04005KT

Laikas: 10:26 (09:26 UTC)

Prognozė

Ataskaita buvo paskelbta 1 valandą ir 26 minutes, ne 08:00 UTC
Prognozė galioja nuo 10 metu 09 UTC su 10 metu 17 UTC
Vėjas 3 kt nuo kintamojo kryptimis
Matomumas 10 km arba daugiau
Mažai debesys ne aukštis 1500 ft
Tikimybė 30%
nuo 10 metu 09 UTC su 10 metu 17 UTC
Su prošvaistėmis ne aukštis 1200 ft

TAF: ENSD 100800Z 1009/1017 VRB03KT 9999 FEW015 PROB30 1009/1017 BKN012

Orai ataskaitas ir orų prognozės (METAR, TAF).

turimą stotys yra geltonos ir raudonos taškus žemėlapyje.

Perkelti pele per norėdami pamatyti stoties vardą.

Tada spustelėkite, norėdami matyti oro stebėjimo ir prognozės.

Norėdami pakeisti žemėlapį: spustelėkite ant žalios mygtukų su juodo kryžiaus žemyn,; žalią mygtuką su brūkšneliu, jei norite nutolinti; arba žalių rodyklių gretimoms žemėlapius.


METAR-TAF: